4PN9 weather

Glenn's Helo Heliport
Birdsboro, Pennsylvania, United States

Public forecast

Using degrees Fahrenheit for public forecast. Weather courtesy of forecast.io.

METAR (pilot weather report)

Closest report is Heritage Field, 10.0 nm (18.5 km) ESE. Retrieved 2019/07/24 05:54 UTC (29 minutes ago):

KPTW 240554Z AUTO 33003KT 9SM CLR 17/17 A2992 RMK AO2 SLP127 T01720172 10200 20172 50001

TAF (pilot weather forecast)

Closest forecast is Reading Regional Carl A Spaatz Field, 10.6 nm (19.7 km) WNW. Retrieved 2019/07/24 06:22 UTC (56 seconds ago):

TAF KRDG 240520Z 2406/2506 VRB04KT P6SM SCT250 FM241700 01006KT P6SM SCT050 FM250000 VRB04KT P6SM FEW070